sensor_id;sensor_type;location;lat;lon;timestamp;pressure;altitude;pressure_sealevel;temperature;humidity
44872;BME280;30602;51.060;17.226;2023-05-21T00:02:32;102028.59;;;14.31;100.00
44872;BME280;30602;51.060;17.226;2023-05-21T00:06:23;102037.74;;;14.38;99.57
44872;BME280;30602;51.060;17.226;2023-05-21T00:10:11;102031.01;;;14.42;99.32
44872;BME280;30602;51.060;17.226;2023-05-21T00:13:49;102031.40;;;14.40;99.29
44872;BME280;30602;51.060;17.226;2023-05-21T00:17:07;102025.40;;;14.42;98.98
44872;BME280;30602;51.060;17.226;2023-05-21T00:20:30;102024.52;;;14.31;99.33
44872;BME280;30602;51.060;17.226;2023-05-21T00:24:45;102024.20;;;14.18;99.92
44872;BME280;30602;51.060;17.226;2023-05-21T00:28:15;102020.73;;;13.90;100.00
44872;BME280;30602;51.060;17.226;2023-05-21T00:32:06;102013.74;;;13.60;100.00
44872;BME280;30602;51.060;17.226;2023-05-21T00:36:07;102018.71;;;13.49;100.00
44872;BME280;30602;51.060;17.226;2023-05-21T00:39:51;102015.57;;;13.35;100.00
44872;BME280;30602;51.060;17.226;2023-05-21T00:43:50;102020.88;;;13.37;100.00
44872;BME280;30602;51.060;17.226;2023-05-21T00:47:35;102020.55;;;13.33;100.00
44872;BME280;30602;51.060;17.226;2023-05-21T00:51:41;102022.48;;;13.31;100.00
44872;BME280;30602;51.060;17.226;2023-05-21T00:55:25;102024.61;;;13.14;100.00
44872;BME280;30602;51.060;17.226;2023-05-21T00:59:21;102024.59;;;13.09;100.00
44872;BME280;30602;51.060;17.226;2023-05-21T01:03:18;102005.95;;;13.07;100.00
44872;BME280;30602;51.060;17.226;2023-05-21T01:06:41;102016.21;;;13.10;100.00
44872;BME280;30602;51.060;17.226;2023-05-21T01:10:54;102022.48;;;12.95;100.00
44872;BME280;30602;51.060;17.226;2023-05-21T01:14:23;102015.70;;;12.84;100.00
44872;BME280;30602;51.060;17.226;2023-05-21T01:18:18;102010.52;;;12.82;100.00
44872;BME280;30602;51.060;17.226;2023-05-21T01:22:34;102011.47;;;12.70;100.00
44872;BME280;30602;51.060;17.226;2023-05-21T01:26:19;102006.77;;;12.59;100.00
44872;BME280;30602;51.060;17.226;2023-05-21T01:30:48;102004.86;;;12.41;100.00
44872;BME280;30602;51.060;17.226;2023-05-21T01:34:14;102001.01;;;12.50;100.00
44872;BME280;30602;51.060;17.226;2023-05-21T01:38:16;102002.05;;;12.50;100.00
44872;BME280;30602;51.060;17.226;2023-05-21T01:41:49;101994.02;;;12.43;100.00
44872;BME280;30602;51.060;17.226;2023-05-21T01:45:41;102004.25;;;12.32;100.00
44872;BME280;30602;51.060;17.226;2023-05-21T01:49:41;101996.46;;;12.13;100.00
44872;BME280;30602;51.060;17.226;2023-05-21T01:53:21;101995.13;;;12.05;100.00
44872;BME280;30602;51.060;17.226;2023-05-21T01:57:11;101998.16;;;12.04;100.00
44872;BME280;30602;51.060;17.226;2023-05-21T02:00:53;102000.32;;;11.97;100.00
44872;BME280;30602;51.060;17.226;2023-05-21T02:04:25;102002.14;;;11.96;100.00
44872;BME280;30602;51.060;17.226;2023-05-21T02:08:51;101996.61;;;11.90;100.00
44872;BME280;30602;51.060;17.226;2023-05-21T02:12:33;101992.75;;;11.70;100.00
44872;BME280;30602;51.060;17.226;2023-05-21T02:16:17;101994.16;;;11.56;100.00
44872;BME280;30602;51.060;17.226;2023-05-21T02:20:16;101993.39;;;11.55;100.00
44872;BME280;30602;51.060;17.226;2023-05-21T02:23:56;101997.98;;;11.41;100.00
44872;BME280;30602;51.060;17.226;2023-05-21T02:27:39;101996.50;;;11.39;100.00
44872;BME280;30602;51.060;17.226;2023-05-21T02:31:22;101999.92;;;11.46;100.00
44872;BME280;30602;51.060;17.226;2023-05-21T02:34:46;101997.68;;;11.39;100.00
44872;BME280;30602;51.060;17.226;2023-05-21T02:38:08;101989.44;;;11.29;100.00
44872;BME280;30602;51.060;17.226;2023-05-21T02:41:56;101992.70;;;11.39;100.00
44872;BME280;30602;51.060;17.226;2023-05-21T02:45:17;101994.80;;;11.46;100.00
44872;BME280;30602;51.060;17.226;2023-05-21T02:48:51;101995.58;;;11.27;100.00
44872;BME280;30602;51.060;17.226;2023-05-21T02:52:41;101994.11;;;11.16;100.00
44872;BME280;30602;51.060;17.226;2023-05-21T02:56:59;101988.76;;;11.15;100.00
44872;BME280;30602;51.060;17.226;2023-05-21T03:00:23;101985.74;;;11.22;100.00
44872;BME280;30602;51.060;17.226;2023-05-21T03:04:21;101986.24;;;11.24;100.00
44872;BME280;30602;51.060;17.226;2023-05-21T03:08:07;101978.23;;;11.29;100.00
44872;BME280;30602;51.060;17.226;2023-05-21T03:11:45;101978.47;;;11.35;100.00
44872;BME280;30602;51.060;17.226;2023-05-21T03:15:29;101981.63;;;11.35;100.00
44872;BME280;30602;51.060;17.226;2023-05-21T03:19:14;101987.96;;;11.46;100.00
44872;BME280;30602;51.060;17.226;2023-05-21T03:22:47;101986.11;;;11.50;100.00
44872;BME280;30602;51.060;17.226;2023-05-21T03:26:16;101988.76;;;11.45;100.00
44872;BME280;30602;51.060;17.226;2023-05-21T03:30:11;101986.31;;;11.47;100.00
44872;BME280;30602;51.060;17.226;2023-05-21T03:33:43;101981.36;;;11.53;100.00
44872;BME280;30602;51.060;17.226;2023-05-21T03:37:51;101983.73;;;11.55;100.00
44872;BME280;30602;51.060;17.226;2023-05-21T03:41:34;101976.97;;;11.58;100.00
44872;BME280;30602;51.060;17.226;2023-05-21T03:46:04;101982.23;;;11.68;100.00
44872;BME280;30602;51.060;17.226;2023-05-21T03:49:47;101983.67;;;11.85;100.00
44872;BME280;30602;51.060;17.226;2023-05-21T03:53:57;101983.61;;;11.95;100.00
44872;BME280;30602;51.060;17.226;2023-05-21T03:57:37;101984.43;;;12.04;100.00
44872;BME280;30602;51.060;17.226;2023-05-21T04:01:23;101986.14;;;12.15;100.00
44872;BME280;30602;51.060;17.226;2023-05-21T04:04:46;101984.34;;;12.22;100.00
44872;BME280;30602;51.060;17.226;2023-05-21T04:08:42;101989.83;;;12.40;100.00
44872;BME280;30602;51.060;17.226;2023-05-21T04:16:45;101983.41;;;12.77;100.00
44872;BME280;30602;51.060;17.226;2023-05-21T04:20:19;101981.85;;;12.97;100.00
44872;BME280;30602;51.060;17.226;2023-05-21T04:23:57;101981.16;;;13.32;100.00
44872;BME280;30602;51.060;17.226;2023-05-21T04:27:41;101976.08;;;13.77;100.00
44872;BME280;30602;51.060;17.226;2023-05-21T04:31:33;101981.41;;;13.79;100.00
44872;BME280;30602;51.060;17.226;2023-05-21T04:34:56;101978.64;;;14.14;100.00
44872;BME280;30602;51.060;17.226;2023-05-21T04:38:39;101963.80;;;14.24;100.00
44872;BME280;30602;51.060;17.226;2023-05-21T04:42:20;101965.20;;;14.56;100.00
44872;BME280;30602;51.060;17.226;2023-05-21T04:45:52;101981.16;;;14.89;100.00
44872;BME280;30602;51.060;17.226;2023-05-21T04:49:13;101971.12;;;15.03;100.00
44872;BME280;30602;51.060;17.226;2023-05-21T04:52:45;101969.09;;;15.08;100.00
44872;BME280;30602;51.060;17.226;2023-05-21T04:57:17;101967.27;;;15.27;99.34
44872;BME280;30602;51.060;17.226;2023-05-21T05:00:58;101969.15;;;15.60;96.09
44872;BME280;30602;51.060;17.226;2023-05-21T05:05:05;101963.75;;;15.74;95.77
44872;BME280;30602;51.060;17.226;2023-05-21T05:09:10;101967.31;;;15.86;95.35
44872;BME280;30602;51.060;17.226;2023-05-21T05:13:13;101970.05;;;16.22;92.08
44872;BME280;30602;51.060;17.226;2023-05-21T05:16:47;101971.62;;;16.41;90.63
44872;BME280;30602;51.060;17.226;2023-05-21T05:21:08;101973.02;;;16.66;87.92
44872;BME280;30602;51.060;17.226;2023-05-21T05:25:30;101972.27;;;16.83;88.20
44872;BME280;30602;51.060;17.226;2023-05-21T05:29:10;101967.50;;;16.93;86.30
44872;BME280;30602;51.060;17.226;2023-05-21T05:40:53;101958.90;;;17.32;82.00
44872;BME280;30602;51.060;17.226;2023-05-21T05:44:33;101956.99;;;17.44;82.25
44872;BME280;30602;51.060;17.226;2023-05-21T05:47:55;101958.48;;;17.54;81.83
44872;BME280;30602;51.060;17.226;2023-05-21T05:51:24;101953.42;;;17.65;79.97
44872;BME280;30602;51.060;17.226;2023-05-21T05:55:04;101954.34;;;17.80;80.11
44872;BME280;30602;51.060;17.226;2023-05-21T05:58:58;101951.69;;;17.91;79.50
44872;BME280;30602;51.060;17.226;2023-05-21T06:02:17;101949.09;;;17.95;77.94
44872;BME280;30602;51.060;17.226;2023-05-21T06:05:58;101947.10;;;18.02;76.62
44872;BME280;30602;51.060;17.226;2023-05-21T06:10:26;101943.98;;;18.13;77.86
44872;BME280;30602;51.060;17.226;2023-05-21T06:13:54;101915.55;;;18.18;76.96
44872;BME280;30602;51.060;17.226;2023-05-21T06:17:55;101941.98;;;18.48;75.43
44872;BME280;30602;51.060;17.226;2023-05-21T06:21:26;101936.09;;;18.57;76.01
44872;BME280;30602;51.060;17.226;2023-05-21T06:25:12;101937.87;;;18.68;76.28
44872;BME280;30602;51.060;17.226;2023-05-21T06:28:46;101931.99;;;18.82;75.21
44872;BME280;30602;51.060;17.226;2023-05-21T06:32:27;101924.52;;;18.82;73.96
44872;BME280;30602;51.060;17.226;2023-05-21T06:36:16;101925.06;;;19.20;72.34
44872;BME280;30602;51.060;17.226;2023-05-21T06:41:14;101928.13;;;19.39;71.60
44872;BME280;30602;51.060;17.226;2023-05-21T06:44:46;101924.64;;;19.65;70.80
44872;BME280;30602;51.060;17.226;2023-05-21T06:48:10;101925.45;;;19.44;69.34
44872;BME280;30602;51.060;17.226;2023-05-21T06:51:36;101926.38;;;19.49;70.58
44872;BME280;30602;51.060;17.226;2023-05-21T06:55:38;101926.20;;;19.54;71.37
44872;BME280;30602;51.060;17.226;2023-05-21T06:59:09;101923.43;;;19.70;70.01
44872;BME280;30602;51.060;17.226;2023-05-21T07:02:30;101914.64;;;19.78;69.32
44872;BME280;30602;51.060;17.226;2023-05-21T07:05:57;101910.91;;;19.94;68.56
44872;BME280;30602;51.060;17.226;2023-05-21T07:09:36;101910.16;;;20.27;70.88
44872;BME280;30602;51.060;17.226;2023-05-21T07:17:12;101909.34;;;20.38;68.77
44872;BME280;30602;51.060;17.226;2023-05-21T07:21:17;101909.15;;;20.40;67.58
44872;BME280;30602;51.060;17.226;2023-05-21T07:25:34;101903.41;;;20.63;66.83
44872;BME280;30602;51.060;17.226;2023-05-21T07:29:11;101901.66;;;20.66;66.34
44872;BME280;30602;51.060;17.226;2023-05-21T07:33:04;101903.05;;;20.63;67.05
44872;BME280;30602;51.060;17.226;2023-05-21T07:36:43;101898.33;;;20.67;65.67
44872;BME280;30602;51.060;17.226;2023-05-21T07:40:34;101899.66;;;20.92;67.05
44872;BME280;30602;51.060;17.226;2023-05-21T07:44:46;101900.67;;;21.17;67.46
44872;BME280;30602;51.060;17.226;2023-05-21T07:48:28;101895.77;;;21.29;67.59
44872;BME280;30602;51.060;17.226;2023-05-21T07:52:08;101894.94;;;21.43;64.26
44872;BME280;30602;51.060;17.226;2023-05-21T07:55:31;101892.20;;;21.44;63.84
44872;BME280;30602;51.060;17.226;2023-05-21T07:59:15;101891.62;;;21.52;63.70
44872;BME280;30602;51.060;17.226;2023-05-21T08:02:34;101882.92;;;21.65;64.02
44872;BME280;30602;51.060;17.226;2023-05-21T08:09:50;101883.86;;;21.74;63.93
44872;BME280;30602;51.060;17.226;2023-05-21T08:13:30;101886.77;;;21.74;63.34
44872;BME280;30602;51.060;17.226;2023-05-21T08:17:12;101884.52;;;21.82;61.63
44872;BME280;30602;51.060;17.226;2023-05-21T08:20:57;101878.68;;;21.94;63.07
44872;BME280;30602;51.060;17.226;2023-05-21T08:24:46;101881.20;;;22.22;62.06
44872;BME280;30602;51.060;17.226;2023-05-21T08:28:59;101883.14;;;22.18;59.70
44872;BME280;30602;51.060;17.226;2023-05-21T08:32:20;101884.45;;;22.30;58.76
44872;BME280;30602;51.060;17.226;2023-05-21T08:35:39;101884.53;;;22.37;58.66
44872;BME280;30602;51.060;17.226;2023-05-21T08:39:09;101883.64;;;22.43;57.94
44872;BME280;30602;51.060;17.226;2023-05-21T08:50:35;101879.48;;;22.94;57.49
44872;BME280;30602;51.060;17.226;2023-05-21T08:54:06;101874.67;;;22.99;55.44
44872;BME280;30602;51.060;17.226;2023-05-21T08:57:48;101872.97;;;23.00;57.77
44872;BME280;30602;51.060;17.226;2023-05-21T09:01:44;101862.52;;;23.15;57.79
44872;BME280;30602;51.060;17.226;2023-05-21T09:06:12;101864.30;;;23.38;57.90
44872;BME280;30602;51.060;17.226;2023-05-21T09:10:13;101863.44;;;23.46;57.04
44872;BME280;30602;51.060;17.226;2023-05-21T09:13:43;101863.53;;;23.55;57.27
44872;BME280;30602;51.060;17.226;2023-05-21T09:17:13;101862.23;;;23.73;55.77
44872;BME280;30602;51.060;17.226;2023-05-21T09:20:48;101861.27;;;23.62;55.30
44872;BME280;30602;51.060;17.226;2023-05-21T09:24:32;101861.13;;;23.55;56.10
44872;BME280;30602;51.060;17.226;2023-05-21T09:28:12;101838.09;;;23.42;55.84
44872;BME280;30602;51.060;17.226;2023-05-21T09:31:53;101850.12;;;23.54;54.01
44872;BME280;30602;51.060;17.226;2023-05-21T09:35:14;101851.85;;;23.80;55.86
44872;BME280;30602;51.060;17.226;2023-05-21T09:38:59;101849.26;;;23.80;55.46
44872;BME280;30602;51.060;17.226;2023-05-21T09:42:22;101849.55;;;23.81;53.30
44872;BME280;30602;51.060;17.226;2023-05-21T09:49:25;101840.59;;;24.15;55.89
44872;BME280;30602;51.060;17.226;2023-05-21T09:53:11;101844.43;;;23.95;51.82
44872;BME280;30602;51.060;17.226;2023-05-21T09:57:06;101834.00;;;23.90;52.89
44872;BME280;30602;51.060;17.226;2023-05-21T10:00:49;101833.63;;;23.99;52.08
44872;BME280;30602;51.060;17.226;2023-05-21T10:04:55;101830.53;;;24.01;52.58
44872;BME280;30602;51.060;17.226;2023-05-21T10:08:29;101827.78;;;24.07;52.12
44872;BME280;30602;51.060;17.226;2023-05-21T10:15:46;101823.44;;;24.15;52.33
44872;BME280;30602;51.060;17.226;2023-05-21T10:19:26;101818.87;;;24.25;51.81
44872;BME280;30602;51.060;17.226;2023-05-21T10:22:50;101819.34;;;24.24;52.20
44872;BME280;30602;51.060;17.226;2023-05-21T10:26:12;101817.23;;;24.17;50.61
44872;BME280;30602;51.060;17.226;2023-05-21T10:29:33;101814.37;;;24.13;51.26
44872;BME280;30602;51.060;17.226;2023-05-21T10:33:14;101814.38;;;24.33;51.21
44872;BME280;30602;51.060;17.226;2023-05-21T10:36:58;101812.08;;;24.38;48.53
44872;BME280;30602;51.060;17.226;2023-05-21T10:41:18;101804.52;;;24.58;50.48
44872;BME280;30602;51.060;17.226;2023-05-21T10:45:09;101804.39;;;24.59;49.30
44872;BME280;30602;51.060;17.226;2023-05-21T10:52:35;101801.39;;;24.73;47.00
44872;BME280;30602;51.060;17.226;2023-05-21T10:56:37;101797.90;;;24.75;47.55
44872;BME280;30602;51.060;17.226;2023-05-21T11:00:20;101786.43;;;24.62;48.65
44872;BME280;30602;51.060;17.226;2023-05-21T11:04:06;101794.84;;;24.82;48.17
44872;BME280;30602;51.060;17.226;2023-05-21T11:07:56;101793.34;;;24.69;45.51
44872;BME280;30602;51.060;17.226;2023-05-21T11:15:15;101785.02;;;24.82;45.69
44872;BME280;30602;51.060;17.226;2023-05-21T11:19:17;101765.23;;;24.60;43.71
44872;BME280;30602;51.060;17.226;2023-05-21T11:22:49;101783.40;;;24.80;45.10
44872;BME280;30602;51.060;17.226;2023-05-21T11:26:18;101780.38;;;24.73;43.82
44872;BME280;30602;51.060;17.226;2023-05-21T11:30:07;101776.81;;;24.74;45.06
44872;BME280;30602;51.060;17.226;2023-05-21T11:33:32;101771.41;;;24.76;41.95
44872;BME280;30602;51.060;17.226;2023-05-21T11:40:52;101760.99;;;24.98;43.74
44872;BME280;30602;51.060;17.226;2023-05-21T11:44:16;101763.87;;;25.05;42.69
44872;BME280;30602;51.060;17.226;2023-05-21T11:48:02;101762.59;;;24.98;42.58
44872;BME280;30602;51.060;17.226;2023-05-21T11:52:30;101759.82;;;24.81;40.42
44872;BME280;30602;51.060;17.226;2023-05-21T11:55:53;101760.69;;;24.90;43.84
44872;BME280;30602;51.060;17.226;2023-05-21T11:59:15;101753.89;;;25.00;42.57
44872;BME280;30602;51.060;17.226;2023-05-21T12:02:37;101756.73;;;25.02;42.63
44872;BME280;30602;51.060;17.226;2023-05-21T12:06:05;101752.16;;;24.91;44.11
44872;BME280;30602;51.060;17.226;2023-05-21T12:09:49;101755.72;;;24.99;42.88
44872;BME280;30602;51.060;17.226;2023-05-21T12:13:13;101745.03;;;24.98;43.30
44872;BME280;30602;51.060;17.226;2023-05-21T12:16:57;101747.66;;;25.17;44.47
44872;BME280;30602;51.060;17.226;2023-05-21T12:20:16;101750.42;;;25.04;43.20
44872;BME280;30602;51.060;17.226;2023-05-21T12:23:42;101749.07;;;25.03;43.97
44872;BME280;30602;51.060;17.226;2023-05-21T12:27:21;101744.30;;;25.08;42.58
44872;BME280;30602;51.060;17.226;2023-05-21T12:31:14;101740.55;;;25.21;41.86
44872;BME280;30602;51.060;17.226;2023-05-21T12:35:18;101744.83;;;25.22;40.86
44872;BME280;30602;51.060;17.226;2023-05-21T12:38:57;101738.90;;;25.17;42.71
44872;BME280;30602;51.060;17.226;2023-05-21T12:42:29;101741.31;;;25.26;42.94
44872;BME280;30602;51.060;17.226;2023-05-21T12:46:15;101739.70;;;25.15;40.50
44872;BME280;30602;51.060;17.226;2023-05-21T12:49:42;101741.04;;;25.30;40.69
44872;BME280;30602;51.060;17.226;2023-05-21T12:53:10;101742.34;;;25.29;41.02
44872;BME280;30602;51.060;17.226;2023-05-21T12:57:08;101734.56;;;25.39;41.18
44872;BME280;30602;51.060;17.226;2023-05-21T13:00:49;101732.90;;;25.36;41.55
44872;BME280;30602;51.060;17.226;2023-05-21T13:04:41;101730.24;;;25.51;43.38
44872;BME280;30602;51.060;17.226;2023-05-21T13:08:30;101729.26;;;25.45;42.54
44872;BME280;30602;51.060;17.226;2023-05-21T13:12:17;101732.62;;;25.37;43.01
44872;BME280;30602;51.060;17.226;2023-05-21T13:15:43;101730.13;;;25.17;42.13
44872;BME280;30602;51.060;17.226;2023-05-21T13:19:23;101727.80;;;25.15;44.30
44872;BME280;30602;51.060;17.226;2023-05-21T13:23:08;101729.15;;;25.26;43.02
44872;BME280;30602;51.060;17.226;2023-05-21T13:27:12;101727.81;;;25.37;42.53
44872;BME280;30602;51.060;17.226;2023-05-21T13:31:27;101734.55;;;25.08;41.62
44872;BME280;30602;51.060;17.226;2023-05-21T13:35:10;101724.66;;;24.95;43.10
44872;BME280;30602;51.060;17.226;2023-05-21T13:39:03;101725.30;;;24.96;42.96
44872;BME280;30602;51.060;17.226;2023-05-21T13:42:48;101724.26;;;24.81;41.77
44872;BME280;30602;51.060;17.226;2023-05-21T13:46:15;101719.84;;;24.77;43.32
44872;BME280;30602;51.060;17.226;2023-05-21T13:50:19;101722.93;;;24.58;42.34
44872;BME280;30602;51.060;17.226;2023-05-21T13:57:54;101718.31;;;24.80;42.76
44872;BME280;30602;51.060;17.226;2023-05-21T14:01:38;101715.39;;;25.00;42.23
44872;BME280;30602;51.060;17.226;2023-05-21T14:05:23;101716.48;;;25.01;41.41
44872;BME280;30602;51.060;17.226;2023-05-21T14:09:05;101719.80;;;25.24;41.22
44872;BME280;30602;51.060;17.226;2023-05-21T14:12:52;101712.55;;;25.36;40.33
44872;BME280;30602;51.060;17.226;2023-05-21T14:16:39;101714.70;;;25.37;40.61
44872;BME280;30602;51.060;17.226;2023-05-21T14:20:06;101716.77;;;25.19;40.97
44872;BME280;30602;51.060;17.226;2023-05-21T14:23:46;101716.22;;;25.04;41.23
44872;BME280;30602;51.060;17.226;2023-05-21T14:27:05;101711.66;;;24.99;40.58
44872;BME280;30602;51.060;17.226;2023-05-21T14:31:01;101709.90;;;24.92;42.01
44872;BME280;30602;51.060;17.226;2023-05-21T14:34:53;101714.50;;;24.55;42.08
44872;BME280;30602;51.060;17.226;2023-05-21T14:38:13;101709.96;;;24.34;42.55
44872;BME280;30602;51.060;17.226;2023-05-21T14:41:54;101713.47;;;24.21;43.53
44872;BME280;30602;51.060;17.226;2023-05-21T14:45:35;101711.75;;;24.22;42.28
44872;BME280;30602;51.060;17.226;2023-05-21T14:49:54;101710.73;;;24.15;42.40
44872;BME280;30602;51.060;17.226;2023-05-21T14:53:33;101712.48;;;24.26;42.15
44872;BME280;30602;51.060;17.226;2023-05-21T14:57:17;101711.52;;;24.40;42.31
44872;BME280;30602;51.060;17.226;2023-05-21T15:01:16;101707.58;;;24.52;41.55
44872;BME280;30602;51.060;17.226;2023-05-21T15:05:31;101706.55;;;24.50;40.82
44872;BME280;30602;51.060;17.226;2023-05-21T15:09:24;101701.63;;;24.37;39.83
44872;BME280;30602;51.060;17.226;2023-05-21T15:13:48;101701.23;;;24.16;40.64
44872;BME280;30602;51.060;17.226;2023-05-21T15:17:50;101702.77;;;24.10;40.94
44872;BME280;30602;51.060;17.226;2023-05-21T15:21:28;101698.24;;;24.10;41.74
44872;BME280;30602;51.060;17.226;2023-05-21T15:25:48;101700.08;;;24.11;41.91
44872;BME280;30602;51.060;17.226;2023-05-21T15:29:21;101698.85;;;24.20;39.92
44872;BME280;30602;51.060;17.226;2023-05-21T15:33:04;101692.09;;;24.33;40.12
44872;BME280;30602;51.060;17.226;2023-05-21T15:36:50;101691.53;;;24.41;40.35
44872;BME280;30602;51.060;17.226;2023-05-21T15:40:49;101693.12;;;24.48;40.76
44872;BME280;30602;51.060;17.226;2023-05-21T15:44:11;101683.05;;;24.53;40.08
44872;BME280;30602;51.060;17.226;2023-05-21T15:47:50;101684.93;;;24.42;40.13
44872;BME280;30602;51.060;17.226;2023-05-21T15:51:33;101687.39;;;24.29;41.49
44872;BME280;30602;51.060;17.226;2023-05-21T15:55:19;101688.66;;;24.17;40.50
44872;BME280;30602;51.060;17.226;2023-05-21T15:58:41;101690.29;;;24.20;41.59
44872;BME280;30602;51.060;17.226;2023-05-21T16:02:35;101691.29;;;24.03;41.28
44872;BME280;30602;51.060;17.226;2023-05-21T16:06:00;101694.52;;;23.96;43.22
44872;BME280;30602;51.060;17.226;2023-05-21T16:09:22;101694.13;;;23.93;43.33
44872;BME280;30602;51.060;17.226;2023-05-21T16:13:29;101692.04;;;23.86;40.76
44872;BME280;30602;51.060;17.226;2023-05-21T16:17:14;101692.19;;;23.78;41.74
44872;BME280;30602;51.060;17.226;2023-05-21T16:20:34;101693.95;;;23.71;43.19
44872;BME280;30602;51.060;17.226;2023-05-21T16:24:22;101697.85;;;23.72;42.04
44872;BME280;30602;51.060;17.226;2023-05-21T16:27:54;101693.19;;;23.79;42.43
44872;BME280;30602;51.060;17.226;2023-05-21T16:31:28;101627.70;;;23.47;41.57
44872;BME280;30602;51.060;17.226;2023-05-21T16:34:51;101683.43;;;23.89;40.22
44872;BME280;30602;51.060;17.226;2023-05-21T16:38:30;101680.27;;;23.97;41.36
44872;BME280;30602;51.060;17.226;2023-05-21T16:42:34;101678.52;;;23.99;39.74
44872;BME280;30602;51.060;17.226;2023-05-21T16:45:55;101677.09;;;23.92;40.98
44872;BME280;30602;51.060;17.226;2023-05-21T16:49:18;101679.50;;;23.76;42.87
44872;BME280;30602;51.060;17.226;2023-05-21T16:53:00;101678.86;;;23.67;42.49
44872;BME280;30602;51.060;17.226;2023-05-21T16:56:21;101680.50;;;23.52;44.18
44872;BME280;30602;51.060;17.226;2023-05-21T16:59:45;101678.30;;;23.42;42.58
44872;BME280;30602;51.060;17.226;2023-05-21T17:03:29;101682.27;;;23.28;42.39
44872;BME280;30602;51.060;17.226;2023-05-21T17:06:49;101683.36;;;23.17;42.38
44872;BME280;30602;51.060;17.226;2023-05-21T17:10:32;101690.00;;;23.11;43.49
44872;BME280;30602;51.060;17.226;2023-05-21T17:13:51;101689.88;;;23.01;44.22
44872;BME280;30602;51.060;17.226;2023-05-21T17:17:34;101694.30;;;22.93;43.72
44872;BME280;30602;51.060;17.226;2023-05-21T17:21:38;101696.17;;;22.76;45.52
44872;BME280;30602;51.060;17.226;2023-05-21T17:24:59;101701.34;;;22.65;45.32
44872;BME280;30602;51.060;17.226;2023-05-21T17:28:41;101705.96;;;22.55;45.33
44872;BME280;30602;51.060;17.226;2023-05-21T17:32:04;101703.66;;;22.47;46.09
44872;BME280;30602;51.060;17.226;2023-05-21T17:35:46;101706.91;;;22.30;45.71
44872;BME280;30602;51.060;17.226;2023-05-21T17:39:08;101712.26;;;22.15;46.28
44872;BME280;30602;51.060;17.226;2023-05-21T17:42:54;101715.78;;;22.04;47.68
44872;BME280;30602;51.060;17.226;2023-05-21T17:46:48;101714.27;;;21.92;48.47
44872;BME280;30602;51.060;17.226;2023-05-21T17:50:11;101710.91;;;21.92;48.68
44872;BME280;30602;51.060;17.226;2023-05-21T17:54:30;101707.63;;;21.66;50.64
44872;BME280;30602;51.060;17.226;2023-05-21T17:57:58;101711.66;;;21.44;51.58
44872;BME280;30602;51.060;17.226;2023-05-21T18:01:42;101710.63;;;21.27;52.52
44872;BME280;30602;51.060;17.226;2023-05-21T18:05:13;101713.30;;;21.26;53.08
44872;BME280;30602;51.060;17.226;2023-05-21T18:09:28;101712.95;;;20.96;52.93
44872;BME280;30602;51.060;17.226;2023-05-21T18:13:10;101714.43;;;20.81;54.68
44872;BME280;30602;51.060;17.226;2023-05-21T18:16:52;101715.40;;;20.59;55.15
44872;BME280;30602;51.060;17.226;2023-05-21T18:20:17;101718.09;;;20.49;56.36
44872;BME280;30602;51.060;17.226;2023-05-21T18:23:58;101720.80;;;20.20;57.94
44872;BME280;30602;51.060;17.226;2023-05-21T18:27:27;101724.46;;;19.73;61.73
44872;BME280;30602;51.060;17.226;2023-05-21T18:31:39;101725.24;;;19.35;63.50
44872;BME280;30602;51.060;17.226;2023-05-21T18:35:22;101732.47;;;19.21;62.22
44872;BME280;30602;51.060;17.226;2023-05-21T18:38:58;101732.54;;;19.08;62.93
44872;BME280;30602;51.060;17.226;2023-05-21T18:42:41;101735.55;;;19.14;62.93
44872;BME280;30602;51.060;17.226;2023-05-21T18:46:35;101718.08;;;18.75;63.25
44872;BME280;30602;51.060;17.226;2023-05-21T18:49:59;101731.92;;;18.63;64.22
44872;BME280;30602;51.060;17.226;2023-05-21T18:53:40;101741.10;;;18.75;63.36
44872;BME280;30602;51.060;17.226;2023-05-21T18:57:18;101741.29;;;18.48;66.19
44872;BME280;30602;51.060;17.226;2023-05-21T19:01:02;101738.62;;;18.28;66.65
44872;BME280;30602;51.060;17.226;2023-05-21T19:05:11;101744.03;;;18.05;67.16
44872;BME280;30602;51.060;17.226;2023-05-21T19:08:33;101751.11;;;17.96;67.42
44872;BME280;30602;51.060;17.226;2023-05-21T19:12:48;101750.05;;;17.94;67.48
44872;BME280;30602;51.060;17.226;2023-05-21T19:16:36;101751.83;;;17.83;68.03
44872;BME280;30602;51.060;17.226;2023-05-21T19:20:09;101756.38;;;17.90;66.54
44872;BME280;30602;51.060;17.226;2023-05-21T19:24:05;101756.31;;;17.88;66.27
44872;BME280;30602;51.060;17.226;2023-05-21T19:27:35;101759.20;;;17.78;66.65
44872;BME280;30602;51.060;17.226;2023-05-21T19:31:13;101758.63;;;17.93;65.60
44872;BME280;30602;51.060;17.226;2023-05-21T19:34:33;101759.40;;;17.92;65.97
44872;BME280;30602;51.060;17.226;2023-05-21T19:38:14;101757.20;;;17.72;67.33
44872;BME280;30602;51.060;17.226;2023-05-21T19:42:20;101756.83;;;17.47;67.85
44872;BME280;30602;51.060;17.226;2023-05-21T19:45:39;101753.62;;;17.25;69.13
44872;BME280;30602;51.060;17.226;2023-05-21T19:49:32;101748.65;;;17.10;69.29
44872;BME280;30602;51.060;17.226;2023-05-21T19:53:24;101752.06;;;16.97;70.16
44872;BME280;30602;51.060;17.226;2023-05-21T19:56:47;101750.97;;;16.89;70.67
44872;BME280;30602;51.060;17.226;2023-05-21T20:00:10;101751.25;;;16.85;70.43